Time,TemperatureF,DewpointF,PressureIn,WindDirection,WindDirectionDegrees,WindSpeedMPH,WindSpeedGustMPH,Humidity,HourlyPrecipIn,Conditions,Clouds,dailyrainin,SoftwareType,DateUTC
2013-06-30 00:02:00,62.6,49.8,29.91,NE,45,0.0,0.0,63,0.00,,---,0.00,VWS V14.01,2013-06-30 07:02:00,
2013-06-30 00:12:00,62.2,50.3,29.91,NE,45,0.0,0.0,65,0.00,,---,0.00,VWS V14.01,2013-06-30 07:12:00,
2013-06-30 00:22:00,62.1,50.2,29.91,NE,45,0.0,0.0,65,0.00,,---,0.00,VWS V14.01,2013-06-30 07:22:00,
2013-06-30 00:27:00,61.9,50.4,29.91,NE,45,0.0,0.0,66,0.00,,---,0.00,VWS V14.01,2013-06-30 07:27:00,
2013-06-30 00:37:00,61.7,50.2,29.91,NE,45,0.0,0.0,66,0.00,,---,0.00,VWS V14.01,2013-06-30 07:37:00,
2013-06-30 00:42:00,61.3,49.9,29.91,NE,45,0.0,0.0,66,0.00,,---,0.00,VWS V14.01,2013-06-30 07:42:00,
2013-06-30 00:47:00,61.3,50.3,29.91,NE,45,0.0,0.0,67,0.00,,---,0.00,VWS V14.01,2013-06-30 07:47:00,
2013-06-30 00:52:00,61.3,50.3,29.91,NE,45,0.0,0.0,67,0.00,,---,0.00,VWS V14.01,2013-06-30 07:52:00,
2013-06-30 01:02:00,61.0,50.0,29.91,NE,45,0.0,0.0,67,0.00,,---,0.00,VWS V14.01,2013-06-30 08:02:00,
2013-06-30 01:12:00,60.6,50.0,29.88,NE,45,0.0,0.0,68,0.00,,---,0.00,VWS V14.01,2013-06-30 08:12:00,
2013-06-30 01:22:00,60.4,50.2,29.91,NE,45,0.0,0.0,69,0.00,,---,0.00,VWS V14.01,2013-06-30 08:22:00,
2013-06-30 01:32:00,60.3,50.5,29.91,NE,45,0.0,0.0,70,0.00,,---,0.00,VWS V14.01,2013-06-30 08:32:00,
2013-06-30 01:37:00,60.1,50.3,29.88,NE,45,0.0,0.0,70,0.00,,---,0.00,VWS V14.01,2013-06-30 08:37:00,
2013-06-30 01:47:00,60.1,50.3,29.88,NE,45,0.0,0.0,70,0.00,,---,0.00,VWS V14.01,2013-06-30 08:47:00,
2013-06-30 01:52:00,60.1,50.7,29.88,NE,45,0.0,0.0,71,0.00,,---,0.00,VWS V14.01,2013-06-30 08:52:00,
2013-06-30 02:02:00,60.6,51.6,29.88,North,0,0.0,2.5,72,0.00,,---,0.00,VWS V14.01,2013-06-30 09:02:00,
2013-06-30 02:12:00,60.4,51.4,29.88,North,0,0.0,0.0,72,0.00,,---,0.00,VWS V14.01,2013-06-30 09:12:00,
2013-06-30 02:22:00,59.9,50.9,29.88,North,0,0.0,0.0,72,0.00,,---,0.00,VWS V14.01,2013-06-30 09:22:00,
2013-06-30 02:32:00,59.7,50.7,29.88,North,0,0.0,0.0,72,0.00,,---,0.00,VWS V14.01,2013-06-30 09:32:00,
2013-06-30 02:37:00,59.5,50.5,29.88,North,0,0.0,0.0,72,0.00,,---,0.00,VWS V14.01,2013-06-30 09:37:00,
2013-06-30 02:47:00,59.4,50.7,29.88,North,0,0.0,0.0,73,0.00,,---,0.00,VWS V14.01,2013-06-30 09:47:00,
2013-06-30 02:52:00,59.2,50.5,29.88,North,0,0.0,0.0,73,0.00,,---,0.00,VWS V14.01,2013-06-30 09:52:00,
2013-06-30 03:02:00,59.2,50.5,29.88,North,0,0.0,0.0,73,0.00,,---,0.00,VWS V14.01,2013-06-30 10:02:00,
2013-06-30 03:07:00,59.4,51.1,29.88,North,0,0.0,0.0,74,0.00,,---,0.00,VWS V14.01,2013-06-30 10:07:00,
2013-06-30 03:17:00,59.2,50.9,29.88,North,0,0.0,0.0,74,0.00,,---,0.00,VWS V14.01,2013-06-30 10:17:00,
2013-06-30 03:22:00,59.0,50.7,29.88,North,0,0.0,0.0,74,0.00,,---,0.00,VWS V14.01,2013-06-30 10:22:00,
2013-06-30 03:32:00,58.8,50.9,29.88,North,0,0.0,0.0,75,0.00,,---,0.00,VWS V14.01,2013-06-30 10:32:00,
2013-06-30 03:42:00,58.6,51.1,29.88,North,0,0.0,0.0,76,0.00,,---,0.00,VWS V14.01,2013-06-30 10:42:00,
2013-06-30 03:47:00,58.5,50.9,29.88,North,0,0.0,0.0,76,0.00,,---,0.00,VWS V14.01,2013-06-30 10:47:00,
2013-06-30 03:52:00,58.5,50.9,29.88,North,0,0.0,0.0,76,0.00,,---,0.00,VWS V14.01,2013-06-30 10:52:00,
2013-06-30 04:02:00,58.5,51.3,29.88,North,0,0.0,0.0,77,0.00,,---,0.00,VWS V14.01,2013-06-30 11:02:00,
2013-06-30 04:07:00,58.5,51.3,29.88,North,0,0.0,0.0,77,0.00,,---,0.00,VWS V14.01,2013-06-30 11:07:00,
2013-06-30 04:12:00,58.5,51.6,29.88,North,0,0.0,0.0,78,0.00,,---,0.00,VWS V14.01,2013-06-30 11:12:00,
2013-06-30 04:22:00,58.5,51.6,29.88,North,0,0.0,0.0,78,0.00,,---,0.00,VWS V14.01,2013-06-30 11:22:00,
2013-06-30 04:32:00,58.5,52.0,29.88,North,0,0.0,0.0,79,0.00,,---,0.00,VWS V14.01,2013-06-30 11:32:00,
2013-06-30 04:37:00,58.5,52.0,29.88,North,0,0.0,0.0,79,0.00,,---,0.00,VWS V14.01,2013-06-30 11:37:00,
2013-06-30 04:42:00,58.3,51.8,29.88,North,0,0.0,0.0,79,0.00,,---,0.00,VWS V14.01,2013-06-30 11:42:00,
2013-06-30 04:52:00,57.9,51.5,29.88,North,0,0.0,0.0,79,0.00,,---,0.00,VWS V14.01,2013-06-30 11:52:00,
2013-06-30 04:57:00,57.9,51.5,29.88,North,0,0.0,0.0,79,0.00,,---,0.00,VWS V14.01,2013-06-30 11:57:00,
2013-06-30 05:07:00,57.7,51.6,29.85,North,0,0.0,0.0,80,0.00,,---,0.00,VWS V14.01,2013-06-30 12:07:00,
2013-06-30 05:17:00,57.7,52.0,29.85,North,0,0.0,0.0,81,0.00,,---,0.00,VWS V14.01,2013-06-30 12:17:00,
2013-06-30 05:22:00,57.9,52.1,29.88,North,0,0.0,0.0,81,0.00,,---,0.00,VWS V14.01,2013-06-30 12:22:00,
2013-06-30 05:32:00,57.6,52.1,29.88,North,0,0.0,0.0,82,0.00,,---,0.00,VWS V14.01,2013-06-30 12:32:00,
2013-06-30 05:37:00,57.6,52.1,29.88,North,0,0.0,0.0,82,0.00,,---,0.00,VWS V14.01,2013-06-30 12:37:00,
2013-06-30 05:42:00,57.6,52.1,29.88,North,0,0.0,0.0,82,0.00,,---,0.00,VWS V14.01,2013-06-30 12:42:00,
2013-06-30 05:47:00,57.6,52.1,29.88,North,0,0.0,0.0,82,0.00,,---,0.00,VWS V14.01,2013-06-30 12:47:00,
2013-06-30 05:52:00,57.6,52.4,29.88,North,0,0.0,0.0,83,0.00,,---,0.00,VWS V14.01,2013-06-30 12:52:00,
2013-06-30 06:02:00,57.6,52.4,29.88,North,0,0.0,0.0,83,0.00,,---,0.00,VWS V14.01,2013-06-30 13:02:00,
2013-06-30 06:07:00,57.4,52.3,29.88,North,0,0.0,0.0,83,0.00,,---,0.00,VWS V14.01,2013-06-30 13:07:00,
2013-06-30 06:12:00,57.4,52.3,29.88,North,0,0.0,0.0,83,0.00,,---,0.00,VWS V14.01,2013-06-30 13:12:00,
2013-06-30 06:17:00,57.4,52.3,29.88,North,0,0.0,0.0,83,0.00,,---,0.00,VWS V14.01,2013-06-30 13:17:00,
2013-06-30 06:22:00,57.6,52.8,29.91,North,0,0.0,0.0,84,0.00,,---,0.00,VWS V14.01,2013-06-30 13:22:00,
2013-06-30 06:32:00,57.9,53.1,29.91,NNE,22,0.0,0.0,84,0.00,,---,0.00,VWS V14.01,2013-06-30 13:32:00,
2013-06-30 06:37:00,58.5,53.7,29.91,NNE,22,0.0,0.0,84,0.00,,---,0.00,VWS V14.01,2013-06-30 13:37:00,
2013-06-30 06:42:00,59.7,55.5,29.91,North,0,0.0,0.0,86,0.00,,---,0.00,VWS V14.01,2013-06-30 13:42:00,
2013-06-30 06:47:00,59.5,54.7,29.91,SSE,158,0.0,0.0,84,0.00,,---,0.00,VWS V14.01,2013-06-30 13:47:00,
2013-06-30 06:52:00,59.5,54.4,29.91,ENE,68,0.0,0.0,83,0.00,,---,0.00,VWS V14.01,2013-06-30 13:52:00,
2013-06-30 07:02:00,59.9,54.7,29.91,ESE,112,0.0,0.0,83,0.00,,---,0.00,VWS V14.01,2013-06-30 14:02:00,
2013-06-30 07:07:00,60.3,55.1,29.91,ESE,112,0.0,0.0,83,0.00,,---,0.00,VWS V14.01,2013-06-30 14:07:00,
2013-06-30 07:17:00,60.8,55.3,29.91,East,90,0.0,1.1,82,0.00,,---,0.00,VWS V14.01,2013-06-30 14:17:00,
2013-06-30 07:22:00,61.0,55.1,29.91,East,90,0.0,0.0,81,0.00,,---,0.00,VWS V14.01,2013-06-30 14:22:00,
2013-06-30 07:32:00,63.3,57.4,29.91,East,90,0.0,0.0,81,0.00,,---,0.00,VWS V14.01,2013-06-30 14:32:00,
2013-06-30 07:37:00,66.0,59.3,29.91,ENE,68,0.0,0.0,79,0.00,,---,0.00,VWS V14.01,2013-06-30 14:37:00,
2013-06-30 07:42:00,67.3,59.8,29.91,East,90,0.0,0.0,77,0.00,,---,0.00,VWS V14.01,2013-06-30 14:42:00,
2013-06-30 07:47:00,68.5,59.2,29.91,ENE,68,0.0,2.5,72,0.00,,---,0.00,VWS V14.01,2013-06-30 14:47:00,
2013-06-30 07:52:00,69.1,58.9,29.91,East,90,0.0,2.2,70,0.00,,---,0.00,VWS V14.01,2013-06-30 14:52:00,
2013-06-30 08:02:00,70.9,58.5,29.91,East,90,1.1,1.3,65,0.00,,---,0.00,VWS V14.01,2013-06-30 15:02:00,
2013-06-30 08:07:00,72.1,56.6,29.91,ENE,68,0.0,2.9,58,0.00,,---,0.00,VWS V14.01,2013-06-30 15:07:00,
2013-06-30 08:12:00,72.7,57.1,29.91,SE,135,2.2,2.2,58,0.00,,---,0.00,VWS V14.01,2013-06-30 15:12:00,
2013-06-30 08:22:00,73.6,54.4,29.91,South,180,1.6,3.1,51,0.00,,---,0.00,VWS V14.01,2013-06-30 15:22:00,
2013-06-30 08:32:00,74.5,54.6,29.91,West,270,0.0,2.5,50,0.00,,---,0.00,VWS V14.01,2013-06-30 15:32:00,
2013-06-30 08:37:00,74.8,53.8,29.91,SW,225,1.3,2.5,48,0.00,,---,0.00,VWS V14.01,2013-06-30 15:37:00,
2013-06-30 08:42:00,75.2,53.0,29.91,SSE,158,1.6,3.4,46,0.00,,---,0.00,VWS V14.01,2013-06-30 15:42:00,
2013-06-30 08:47:00,75.9,53.1,29.91,East,90,0.0,2.2,45,0.00,,---,0.00,VWS V14.01,2013-06-30 15:47:00,
2013-06-30 08:52:00,76.6,52.5,29.91,ESE,112,2.7,4.7,43,0.00,,---,0.00,VWS V14.01,2013-06-30 15:52:00,
2013-06-30 08:58:00,77.4,53.1,29.91,WSW,248,0.0,2.9,43,0.00,,---,0.00,VWS V14.01,2013-06-30 15:58:00,
2013-06-30 09:07:00,78.3,52.0,29.91,ESE,112,1.1,2.7,40,0.00,,---,0.00,VWS V14.01,2013-06-30 16:07:00,
2013-06-30 09:12:00,78.8,52.5,29.91,SW,225,1.3,3.6,40,0.00,,---,0.00,VWS V14.01,2013-06-30 16:12:00,
2013-06-30 09:17:00,79.2,51.4,29.91,West,270,0.0,3.6,38,0.00,,---,0.00,VWS V14.01,2013-06-30 16:17:00,
2013-06-30 09:22:00,79.7,49.7,29.91,SSW,202,3.1,4.7,35,0.00,,---,0.00,VWS V14.01,2013-06-30 16:22:00,
2013-06-30 09:32:00,80.4,49.5,29.91,SSW,202,0.0,3.8,34,0.00,,---,0.00,VWS V14.01,2013-06-30 16:32:00,
2013-06-30 09:37:00,81.1,50.1,29.91,WSW,248,2.5,4.0,34,0.00,,---,0.00,VWS V14.01,2013-06-30 16:37:00,
2013-06-30 09:42:00,81.5,49.7,29.91,WSW,248,2.9,2.9,33,0.00,,---,0.00,VWS V14.01,2013-06-30 16:42:00,
2013-06-30 09:47:00,82.0,50.1,29.91,SSW,202,1.3,2.9,33,0.00,,---,0.00,VWS V14.01,2013-06-30 16:47:00,
2013-06-30 09:52:00,82.4,49.6,29.91,SW,225,1.1,3.6,32,0.00,,---,0.00,VWS V14.01,2013-06-30 16:52:00,
2013-06-30 10:02:00,83.3,49.5,29.91,WSW,248,0.0,3.4,31,0.00,,---,0.00,VWS V14.01,2013-06-30 17:02:00,
2013-06-30 10:07:00,83.7,49.8,29.91,WSW,248,3.1,4.7,31,0.00,,---,0.00,VWS V14.01,2013-06-30 17:07:00,
2013-06-30 10:12:00,83.3,48.7,29.91,WSW,248,4.9,4.9,30,0.00,,---,0.00,VWS V14.01,2013-06-30 17:12:00,
2013-06-30 10:17:00,83.3,48.7,29.91,SSW,202,2.9,5.4,30,0.00,,---,0.00,VWS V14.01,2013-06-30 17:17:00,
2013-06-30 10:22:00,84.6,49.8,29.91,SW,225,2.9,4.3,30,0.00,,---,0.00,VWS V14.01,2013-06-30 17:22:00,
2013-06-30 10:32:00,85.1,49.3,29.91,SW,225,0.0,3.1,29,0.00,,---,0.00,VWS V14.01,2013-06-30 17:32:00,
2013-06-30 10:37:00,85.6,49.8,29.91,South,180,2.5,4.0,29,0.00,,---,0.00,VWS V14.01,2013-06-30 17:37:00,
2013-06-30 10:44:00,86.0,49.1,29.91,NNW,338,0.9,4.0,28,0.00,,---,0.00,VWS V14.01,2013-06-30 17:44:00,
2013-06-30 10:52:00,86.2,49.3,29.91,West,270,1.1,3.4,28,0.00,,---,0.00,VWS V14.01,2013-06-30 17:52:00,
2013-06-30 11:02:00,87.3,48.2,29.91,WNW,292,3.8,4.7,26,0.00,,---,0.00,VWS V14.01,2013-06-30 18:02:00,
2013-06-30 11:07:00,87.3,48.2,29.91,WSW,248,4.0,4.0,26,0.00,,---,0.00,VWS V14.01,2013-06-30 18:07:00,
2013-06-30 11:12:00,87.4,48.4,29.91,West,270,1.1,4.0,26,0.00,,---,0.00,VWS V14.01,2013-06-30 18:12:00,
2013-06-30 11:17:00,88.0,47.8,29.91,West,270,1.1,3.6,25,0.00,,---,0.00,VWS V14.01,2013-06-30 18:17:00,
2013-06-30 11:22:00,88.0,46.7,29.91,SSE,158,4.0,4.0,24,0.00,,---,0.00,VWS V14.01,2013-06-30 18:22:00,
2013-06-30 11:32:00,88.9,46.3,29.91,West,270,2.9,3.4,23,0.00,,---,0.00,VWS V14.01,2013-06-30 18:32:00,
2013-06-30 11:37:00,89.4,46.8,29.91,South,180,2.7,4.9,23,0.00,,---,0.00,VWS V14.01,2013-06-30 18:37:00,
2013-06-30 11:42:00,89.4,45.6,29.91,SW,225,2.2,4.3,22,0.00,,---,0.00,VWS V14.01,2013-06-30 18:42:00,
2013-06-30 11:47:00,89.8,44.7,29.91,WSW,248,1.3,5.4,21,0.00,,---,0.00,VWS V14.01,2013-06-30 18:47:00,
2013-06-30 11:52:00,91.0,45.7,29.91,WSW,248,2.5,4.7,21,0.00,,---,0.00,VWS V14.01,2013-06-30 18:52:00,
2013-06-30 12:02:00,90.7,44.1,29.91,SSE,158,3.1,5.8,20,0.00,,---,0.00,VWS V14.01,2013-06-30 19:02:00,
2013-06-30 12:07:00,91.0,44.4,29.91,South,180,1.1,6.3,20,0.00,,---,0.00,VWS V14.01,2013-06-30 19:07:00,
2013-06-30 12:12:00,91.6,44.9,29.91,SSE,158,1.6,6.0,20,0.00,,---,0.00,VWS V14.01,2013-06-30 19:12:00,
2013-06-30 12:22:00,92.7,45.8,29.88,SSW,202,1.1,4.3,20,0.00,,---,0.00,VWS V14.01,2013-06-30 19:22:00,
2013-06-30 12:32:00,91.9,43.8,29.88,SW,225,2.5,7.4,19,0.00,,---,0.00,VWS V14.01,2013-06-30 19:32:00,
2013-06-30 12:37:00,91.9,43.8,29.88,ESE,112,1.3,3.8,19,0.00,,---,0.00,VWS V14.01,2013-06-30 19:37:00,
2013-06-30 12:42:00,92.5,44.3,29.88,WSW,248,1.6,5.4,19,0.00,,---,0.00,VWS V14.01,2013-06-30 19:42:00,
2013-06-30 12:47:00,93.0,44.7,29.88,NNW,338,1.3,4.0,19,0.00,,---,0.00,VWS V14.01,2013-06-30 19:47:00,
2013-06-30 12:52:00,93.6,43.7,29.88,SW,225,2.5,3.6,18,0.00,,---,0.00,VWS V14.01,2013-06-30 19:52:00,
2013-06-30 13:02:00,93.9,45.4,29.88,West,270,1.1,4.3,19,0.00,,---,0.00,VWS V14.01,2013-06-30 20:02:00,
2013-06-30 13:12:00,95.0,43.4,29.88,WNW,292,1.3,4.3,17,0.00,,---,0.00,VWS V14.01,2013-06-30 20:12:00,
2013-06-30 13:17:00,94.3,42.8,29.88,WSW,248,2.0,5.8,17,0.00,,---,0.00,VWS V14.01,2013-06-30 20:17:00,
2013-06-30 13:22:00,94.3,44.3,29.88,SSW,202,1.6,4.0,18,0.00,,---,0.00,VWS V14.01,2013-06-30 20:22:00,
2013-06-30 13:32:00,95.2,43.5,29.88,SW,225,1.3,6.5,17,0.00,,---,0.00,VWS V14.01,2013-06-30 20:32:00,
2013-06-30 13:37:00,94.6,44.6,29.88,SW,225,1.6,5.6,18,0.00,,---,0.00,VWS V14.01,2013-06-30 20:37:00,
2013-06-30 13:42:00,95.5,43.8,29.88,West,270,0.9,5.4,17,0.00,,---,0.00,VWS V14.01,2013-06-30 20:42:00,
2013-06-30 13:47:00,94.8,44.8,29.88,SSW,202,3.4,7.2,18,0.00,,---,0.00,VWS V14.01,2013-06-30 20:47:00,
2013-06-30 13:52:00,94.3,44.3,29.88,WSW,248,4.7,6.0,18,0.00,,---,0.00,VWS V14.01,2013-06-30 20:52:00,
2013-06-30 14:02:00,94.6,44.6,29.88,WSW,248,2.7,4.7,18,0.00,,---,0.00,VWS V14.01,2013-06-30 21:02:00,
2013-06-30 14:07:00,94.5,44.5,29.85,WSW,248,2.7,5.4,18,0.00,,---,0.00,VWS V14.01,2013-06-30 21:07:00,
2013-06-30 14:12:00,94.8,44.8,29.85,South,180,2.7,7.2,18,0.00,,---,0.00,VWS V14.01,2013-06-30 21:12:00,
2013-06-30 14:17:00,93.7,43.9,29.85,WSW,248,2.7,4.9,18,0.00,,---,0.00,VWS V14.01,2013-06-30 21:17:00,
2013-06-30 14:22:00,94.8,44.8,29.88,WNW,292,2.2,5.4,18,0.00,,---,0.00,VWS V14.01,2013-06-30 21:22:00,
2013-06-30 14:32:00,95.0,43.4,29.88,West,270,3.8,5.4,17,0.00,,---,0.00,VWS V14.01,2013-06-30 21:32:00,
2013-06-30 14:37:00,94.5,44.5,29.85,SW,225,2.7,5.6,18,0.00,,---,0.00,VWS V14.01,2013-06-30 21:37:00,
2013-06-30 14:42:00,94.3,44.3,29.85,WSW,248,3.4,5.6,18,0.00,,---,0.00,VWS V14.01,2013-06-30 21:42:00,
2013-06-30 14:47:00,95.4,43.7,29.85,WSW,248,0.0,5.4,17,0.00,,---,0.00,VWS V14.01,2013-06-30 21:47:00,
2013-06-30 14:52:00,96.6,44.7,29.88,ENE,68,2.0,3.8,17,0.00,,---,0.00,VWS V14.01,2013-06-30 21:52:00,
2013-06-30 15:02:00,94.8,43.3,29.88,SW,225,3.4,4.3,17,0.00,,---,0.00,VWS V14.01,2013-06-30 22:02:00,
2013-06-30 15:07:00,95.0,43.4,29.88,West,270,3.4,4.7,17,0.00,,---,0.00,VWS V14.01,2013-06-30 22:07:00,
2013-06-30 15:12:00,94.3,44.3,29.88,West,270,2.0,7.6,18,0.00,,---,0.00,VWS V14.01,2013-06-30 22:12:00,
2013-06-30 15:17:00,95.5,43.8,29.88,WSW,248,3.6,6.5,17,0.00,,---,0.00,VWS V14.01,2013-06-30 22:17:00,
2013-06-30 15:22:00,95.9,44.1,29.85,WSW,248,2.7,7.2,17,0.00,,---,0.00,VWS V14.01,2013-06-30 22:22:00,
2013-06-30 15:32:00,96.8,43.3,29.85,SSW,202,3.6,6.0,16,0.00,,---,0.00,VWS V14.01,2013-06-30 22:32:00,
2013-06-30 15:42:00,97.0,43.4,29.88,WSW,248,3.8,6.0,16,0.00,,---,0.00,VWS V14.01,2013-06-30 22:42:00,
2013-06-30 15:47:00,96.6,43.1,29.88,West,270,1.6,4.3,16,0.00,,---,0.00,VWS V14.01,2013-06-30 22:47:00,
2013-06-30 15:52:00,94.3,42.8,29.88,SW,225,1.1,6.5,17,0.00,,---,0.00,VWS V14.01,2013-06-30 22:52:00,
2013-06-30 16:02:00,96.4,44.6,29.88,SW,225,6.3,6.3,17,0.00,,---,0.00,VWS V14.01,2013-06-30 23:02:00,
2013-06-30 16:07:00,95.9,44.1,29.88,South,180,4.7,6.3,17,0.00,,---,0.00,VWS V14.01,2013-06-30 23:07:00,
2013-06-30 16:12:00,97.5,43.8,29.88,WSW,248,2.2,4.7,16,0.00,,---,0.00,VWS V14.01,2013-06-30 23:12:00,
2013-06-30 16:17:00,97.2,43.5,29.88,SW,225,1.1,4.9,16,0.00,,---,0.00,VWS V14.01,2013-06-30 23:17:00,
2013-06-30 16:22:00,97.0,43.4,29.88,SSW,202,2.9,3.4,16,0.00,,---,0.00,VWS V14.01,2013-06-30 23:22:00,
2013-06-30 16:32:00,95.9,42.5,29.88,SW,225,1.3,4.3,16,0.00,,---,0.00,VWS V14.01,2013-06-30 23:32:00,
2013-06-30 16:37:00,94.1,42.7,29.85,SW,225,4.0,6.0,17,0.00,,---,0.00,VWS V14.01,2013-06-30 23:37:00,
2013-06-30 16:42:00,93.7,42.4,29.85,NW,315,1.1,4.3,17,0.00,,---,0.00,VWS V14.01,2013-06-30 23:42:00,
2013-06-30 16:52:00,94.5,43.0,29.85,WSW,248,2.9,4.3,17,0.00,,---,0.00,VWS V14.01,2013-06-30 23:52:00,
2013-06-30 17:02:00,95.2,43.5,29.85,WSW,248,2.5,3.1,17,0.00,,---,0.00,VWS V14.01,2013-07-01 00:02:00,
2013-06-30 17:07:00,94.3,42.8,29.85,SSW,202,2.7,4.3,17,0.00,,---,0.00,VWS V14.01,2013-07-01 00:07:00,
2013-06-30 17:12:00,92.5,42.9,29.85,SSW,202,3.4,5.6,18,0.00,,---,0.00,VWS V14.01,2013-07-01 00:12:00,
2013-06-30 17:17:00,92.1,42.6,29.85,WSW,248,3.1,3.6,18,0.00,,---,0.00,VWS V14.01,2013-07-01 00:17:00,
2013-06-30 17:22:00,92.3,42.7,29.85,NW,315,2.0,3.8,18,0.00,,---,0.00,VWS V14.01,2013-07-01 00:22:00,
2013-06-30 17:32:00,90.3,42.5,29.85,SSW,202,3.6,5.6,19,0.00,,---,0.00,VWS V14.01,2013-07-01 00:32:00,
2013-06-30 17:37:00,90.3,42.5,29.88,SW,225,3.1,4.9,19,0.00,,---,0.00,VWS V14.01,2013-07-01 00:37:00,
2013-06-30 17:47:00,91.2,44.6,29.88,SSW,202,1.3,1.6,20,0.00,,---,0.00,VWS V14.01,2013-07-01 00:47:00,
2013-06-30 17:52:00,90.0,43.5,29.85,WSW,248,1.6,4.0,20,0.00,,---,0.00,VWS V14.01,2013-07-01 00:52:00,
2013-06-30 18:02:00,88.2,43.3,29.85,SW,225,3.1,4.9,21,0.00,,---,0.00,VWS V14.01,2013-07-01 01:02:00,
2013-06-30 18:12:00,86.2,42.9,29.85,SW,225,2.2,3.4,22,0.00,,---,0.00,VWS V14.01,2013-07-01 01:12:00,
2013-06-30 18:22:00,84.0,44.5,29.82,SW,225,0.9,2.9,25,0.00,,---,0.00,VWS V14.01,2013-07-01 01:22:00,
2013-06-30 18:32:00,81.1,45.9,29.82,SW,225,4.0,4.0,29,0.00,,---,0.00,VWS V14.01,2013-07-01 01:32:00,
2013-06-30 18:37:00,79.5,46.3,29.82,SSW,202,2.7,5.6,31,0.00,,---,0.00,VWS V14.01,2013-07-01 01:37:00,
2013-06-30 18:42:00,78.8,45.6,29.82,WSW,248,3.6,5.8,31,0.00,,---,0.00,VWS V14.01,2013-07-01 01:42:00,
2013-06-30 18:47:00,78.1,46.7,29.82,WSW,248,4.3,5.6,33,0.00,,---,0.00,VWS V14.01,2013-07-01 01:47:00,
2013-06-30 18:52:00,77.5,47.0,29.82,SSW,202,3.6,4.9,34,0.00,,---,0.00,VWS V14.01,2013-07-01 01:52:00,
2013-06-30 18:58:00,77.0,46.5,29.82,SSW,202,1.6,3.6,34,0.00,,---,0.00,VWS V14.01,2013-07-01 01:58:00,
2013-06-30 19:07:00,75.7,46.9,29.82,South,180,2.7,4.3,36,0.00,,---,0.00,VWS V14.01,2013-07-01 02:07:00,
2013-06-30 19:12:00,75.2,47.2,29.82,SSW,202,0.9,3.6,37,0.00,,---,0.00,VWS V14.01,2013-07-01 02:12:00,
2013-06-30 19:22:00,73.9,47.5,29.82,WSW,248,2.5,4.0,39,0.00,,---,0.00,VWS V14.01,2013-07-01 02:22:00,
2013-06-30 19:32:00,73.0,48.0,29.82,SSE,158,2.0,3.6,41,0.00,,---,0.00,VWS V14.01,2013-07-01 02:32:00,
2013-06-30 19:37:00,72.5,48.1,29.82,WSW,248,3.6,3.8,42,0.00,,---,0.00,VWS V14.01,2013-07-01 02:37:00,
2013-06-30 19:43:00,72.1,47.8,29.82,WNW,292,1.6,3.6,42,0.00,,---,0.00,VWS V14.01,2013-07-01 02:43:00,
2013-06-30 19:52:00,70.9,47.3,29.82,WSW,248,0.0,2.7,43,0.00,,---,0.00,VWS V14.01,2013-07-01 02:52:00,
2013-06-30 20:02:00,70.0,47.7,29.82,SSW,202,4.3,4.3,45,0.00,,---,0.00,VWS V14.01,2013-07-01 03:02:00,
2013-06-30 20:12:00,69.1,47.5,29.82,SSW,202,4.7,4.7,46,0.00,,---,0.00,VWS V14.01,2013-07-01 03:12:00,
2013-06-30 20:22:00,68.2,47.2,29.82,SSW,202,2.5,3.4,47,0.00,,---,0.00,VWS V14.01,2013-07-01 03:22:00,
2013-06-30 20:32:00,67.3,47.5,29.82,WSW,248,1.3,2.7,49,0.00,,---,0.00,VWS V14.01,2013-07-01 03:32:00,
2013-06-30 20:37:00,66.7,47.0,29.82,SSW,202,0.0,2.2,49,0.00,,---,0.00,VWS V14.01,2013-07-01 03:37:00,
2013-06-30 20:47:00,66.0,47.4,29.82,SSE,158,0.0,0.0,51,0.00,,---,0.00,VWS V14.01,2013-07-01 03:47:00,
2013-06-30 20:52:00,65.7,47.1,29.85,WNW,292,0.0,1.1,51,0.00,,---,0.00,VWS V14.01,2013-07-01 03:52:00,
2013-06-30 21:02:00,64.9,47.4,29.85,WSW,248,0.0,2.9,53,0.00,,---,0.00,VWS V14.01,2013-07-01 04:02:00,
2013-06-30 21:07:00,64.6,47.6,29.85,West,270,0.0,0.0,54,0.00,,---,0.00,VWS V14.01,2013-07-01 04:07:00,
2013-06-30 21:12:00,64.2,47.7,29.85,West,270,0.0,0.0,55,0.00,,---,0.00,VWS V14.01,2013-07-01 04:12:00,
2013-06-30 21:17:00,64.2,49.2,29.85,West,270,0.0,2.5,58,0.00,,---,0.00,VWS V14.01,2013-07-01 04:17:00,
2013-06-30 21:22:00,64.0,49.4,29.85,SSE,158,0.9,2.9,59,0.00,,---,0.00,VWS V14.01,2013-07-01 04:22:00,
2013-06-30 21:32:00,63.5,49.4,29.85,WNW,292,0.0,2.0,60,0.00,,---,0.00,VWS V14.01,2013-07-01 04:32:00,
2013-06-30 21:37:00,63.5,49.4,29.88,SSE,158,0.0,2.0,60,0.00,,---,0.00,VWS V14.01,2013-07-01 04:37:00,
2013-06-30 21:42:00,63.0,49.8,29.88,WSW,248,0.9,3.6,62,0.00,,---,0.00,VWS V14.01,2013-07-01 04:42:00,
2013-06-30 21:47:00,62.8,49.6,29.88,SW,225,0.0,2.9,62,0.00,,---,0.00,VWS V14.01,2013-07-01 04:47:00,
2013-06-30 21:57:00,62.2,49.5,29.88,WNW,292,0.0,0.0,63,0.00,,---,0.00,VWS V14.01,2013-07-01 04:57:00,
2013-06-30 22:07:00,61.3,48.7,29.88,WSW,248,0.0,2.9,63,0.00,,---,0.00,VWS V14.01,2013-07-01 05:07:00,
2013-06-30 22:12:00,61.2,48.9,29.88,West,270,0.0,2.5,64,0.00,,---,0.00,VWS V14.01,2013-07-01 05:12:00,
2013-06-30 22:17:00,61.0,49.2,29.88,West,270,0.0,1.3,65,0.00,,---,0.00,VWS V14.01,2013-07-01 05:17:00,
2013-06-30 22:22:00,60.8,49.4,29.88,WSW,248,0.0,2.9,66,0.00,,---,0.00,VWS V14.01,2013-07-01 05:22:00,
2013-06-30 22:32:00,60.6,50.0,29.88,SSW,202,0.0,2.5,68,0.00,,---,0.00,VWS V14.01,2013-07-01 05:32:00,
2013-06-30 22:42:00,60.4,50.6,29.88,West,270,0.0,2.7,70,0.00,,---,0.00,VWS V14.01,2013-07-01 05:42:00,
2013-06-30 22:52:00,60.1,50.3,29.88,NW,315,0.0,1.1,70,0.00,,---,0.00,VWS V14.01,2013-07-01 05:52:00,
2013-06-30 23:02:00,59.5,49.8,29.88,WNW,292,0.0,0.0,70,0.00,,---,0.00,VWS V14.01,2013-07-01 06:02:00,
2013-06-30 23:07:00,59.4,49.6,29.88,WNW,292,0.0,0.0,70,0.00,,---,0.00,VWS V14.01,2013-07-01 06:07:00,
2013-06-30 23:12:00,59.2,49.4,29.88,WNW,292,0.0,0.0,70,0.00,,---,0.00,VWS V14.01,2013-07-01 06:12:00,
2013-06-30 23:22:00,59.0,49.6,29.88,WNW,292,0.0,0.0,71,0.00,,---,0.00,VWS V14.01,2013-07-01 06:22:00,
2013-06-30 23:32:00,58.6,49.7,29.88,WNW,292,0.0,0.0,72,0.00,,---,0.00,VWS V14.01,2013-07-01 06:32:00,
2013-06-30 23:42:00,58.5,49.5,29.88,WNW,292,0.0,0.0,72,0.00,,---,0.00,VWS V14.01,2013-07-01 06:42:00,
2013-06-30 23:52:00,58.5,49.5,29.88,WNW,292,0.0,0.0,72,0.00,,---,0.00,VWS V14.01,2013-07-01 06:52:00,